Fort Davis, TX (79734)

12:34 PM CST on February 09, 2016 (GMT -0600)
3 Dog Ranch | | Change Station
CLOSE
Current Station
Personal Weather Station
Location: Fort Davis, TX
Elevation: 5274 ft
Nearby Weather Stations

Elev 5274 ft 30.61 °N, 103.97 °W | Updated 1 second ago

Clear
Clear
64.0 °F
Feels Like 64.0 °F
N
6.3
Wind Variable Wind from SW
Gusts 7.6 mph

Today
High -- | Low -- °F
--% Chance of Precip.
Yesterday
High -- | Low -- °F
Precip. -- in
Pressure 30.43 in
Visibility 10.0 miles
Clouds Clear
Dew Point 20 °F
Humidity 18%
Rainfall 0.00 in
Snow Depth Not available.
7:41 AM 6:38 PM
New Moon, 2% visible
METAR KMRF 091756Z AUTO 15006KT 10SM CLR 13/M09 A3043 RMK AO2 SLP304 T01281089 10133 21067 58005
Pressure 30.43 in
Visibility 10.0 miles
Clouds Clear
Dew Point 20 °F
Humidity 18%
Rainfall 0.00 in
Snow Depth Not available.
7:41 AM 6:38 PM
New Moon, 2% visible
METAR KMRF 091756Z AUTO 15006KT 10SM CLR 13/M09 A3043 RMK AO2 SLP304 T01281089 10133 21067 58005

10-Day Weather Forecast

Almanac

Astronomy

Feb. 09, 2016 Rise Set
Actual Time
Civil Twilight
Nautical Twilight
Astronomical Twilight
Moon
Length of Visible Light
Length of Day
Tomorrow will be .
, % of the Moon is Illuminated

Today's Extremes

State Highs State Lows

Community

WunderPhotos

Upload Photos

1,891,656 photos uploaded!

WunderBlog® & News

Nearby

Air Quality

  Air Quality AQ Index Pollutant
Not available.

Snow Depth

Station Depth Elevation

Earthquake Activity

City Distance Mag. Time & Date
Minimum magnitude displayed is 2.5.

Coastal Water Temperatures

Place Temperature

Stations

Nearby Weather Stations

Station Location Temp. Windchill Dew Point Humidity Wind Precip. Elev Updated Type
                   

Watches & Warnings

There are currently no watches in effect.